Caraquet, Canada
Current Conditions -  °F | °C
As of 8:00 AM on Monday 20 Oct 2014 (Local Time) from CZBF Reporting Station
Broken Clouds Broken Clouds  
Wind Chill: -3°   Ceiling: 20000
Heat Index:   Visibility: 15mi
Dew Point: -2°   Wind: 13mph
Humidity: 75%   Direction: 270°W
Pressure: 29.62"   Gusts: NA
Location:  47.78°N, 64.95°W
Report Text: CZBF 201100Z 27011KT 15SM FEW075 BKN200 02/M02 A2962 RMK AC1CI4 SLP033
Loading
Personal Weather Stations






























Interactive Weather Map
Tropical Storm Tracking
New forecast layout! Learn more

10-Day Weather Forecast

Advertisements
Track Severe Weather on mobile